Time;durP1;ratioP1;P1;durP2;ratioP2;P2;SDS_P1;SDS_P2;PMS_P1;PMS_P2;Temp;Humidity;BMP_temperature;BMP_pressure;BME280_temperature;BME280_humidity;BME280_pressure;Samples;Min_cycle;Max_cycle;Signal;HPM_P1;HPM_P2
2022/01/03 00:00:34;;;;;;;14.23;3.00;;;;;;;;;;5053433;28;20162;-59
2022/01/03 00:03:01;;;;;;;11.77;3.10;;;;;;;;;;5052605;28;20048;-60
2022/01/03 00:05:28;;;;;;;16.35;3.38;;;;;;;;;;5053347;28;20178;-59
2022/01/03 00:07:54;;;;;;;16.27;3.45;;;;;;;;;;5052034;28;20091;-59
2022/01/03 00:10:21;;;;;;;16.88;2.88;;;;;;;;;;5052711;28;20045;-59
2022/01/03 00:12:49;;;;;;;14.27;3.13;;;;;;;;;;5052990;28;20107;-59
2022/01/03 00:15:16;;;;;;;18.73;3.22;;;;;;;;;;5053235;28;20476;-59
2022/01/03 00:17:43;;;;;;;20.83;3.72;;;;;;;;;;5052453;28;20049;-59
2022/01/03 00:20:11;;;;;;;15.95;3.10;;;;;;;;;;5053071;28;20488;-59
2022/01/03 00:22:40;;;;;;;13.73;2.85;;;;;;;;;;5053383;28;20052;-59
2022/01/03 00:25:10;;;;;;;16.35;3.17;;;;;;;;;;5052210;28;20110;-59
2022/01/03 00:27:41;;;;;;;14.63;3.72;;;;;;;;;;5052917;28;20126;-59
2022/01/03 00:30:08;;;;;;;17.40;3.75;;;;;;;;;;5052427;28;20130;-59
2022/01/03 00:32:37;;;;;;;20.17;3.95;;;;;;;;;;5052877;28;20582;-59
2022/01/03 00:35:06;;;;;;;18.42;3.72;;;;;;;;;;5052575;28;20075;-59
2022/01/03 00:37:32;;;;;;;15.98;3.53;;;;;;;;;;5052175;28;20484;-59
2022/01/03 00:39:59;;;;;;;18.30;3.92;;;;;;;;;;5052424;28;20107;-59
2022/01/03 00:42:25;;;;;;;18.02;3.90;;;;;;;;;;5052730;28;20041;-59
2022/01/03 00:44:52;;;;;;;15.80;3.97;;;;;;;;;;5051869;28;20095;-59
2022/01/03 00:47:18;;;;;;;16.60;3.83;;;;;;;;;;5052803;28;20045;-59
2022/01/03 00:49:45;;;;;;;16.23;4.25;;;;;;;;;;5052054;28;20098;-59
2022/01/03 00:52:13;;;;;;;17.83;3.50;;;;;;;;;;5052017;28;20045;-59
2022/01/03 00:54:39;;;;;;;18.67;3.58;;;;;;;;;;5052365;28;20056;-59
2022/01/03 00:57:07;;;;;;;19.55;4.40;;;;;;;;;;5052552;28;20045;-59
2022/01/03 00:59:38;;;;;;;18.42;4.38;;;;;;;;;;5051701;28;20103;-59
2022/01/03 01:02:05;;;;;;;20.38;4.43;;;;;;;;;;5052322;28;20041;-59
2022/01/03 01:04:32;;;;;;;21.25;3.95;;;;;;;;;;5052191;28;20058;-59
2022/01/03 01:06:59;;;;;;;24.33;4.32;;;;;;;;;;5051292;28;20086;-59
2022/01/03 01:09:27;;;;;;;22.58;4.55;;;;;;;;;;5052188;28;20041;-60
2022/01/03 01:11:54;;;;;;;24.02;4.43;;;;;;;;;;5052093;28;20044;-60
2022/01/03 01:14:21;;;;;;;23.65;4.90;;;;;;;;;;5051392;28;20106;-60
2022/01/03 01:16:48;;;;;;;23.05;4.65;;;;;;;;;;5051880;28;20048;-60
2022/01/03 01:19:14;;;;;;;23.67;4.68;;;;;;;;;;5051058;28;20049;-60
2022/01/03 01:21:41;;;;;;;25.80;5.10;;;;;;;;;;5052070;28;20076;-59
2022/01/03 01:24:07;;;;;;;24.05;5.05;;;;;;;;;;5052248;28;20053;-59
2022/01/03 01:29:19;;;;;;;20.30;3.95;;;;;;;;;;5051915;28;20138;-59
2022/01/03 01:31:46;;;;;;;20.13;4.28;;;;;;;;;;5051414;28;20045;-59
2022/01/03 01:34:14;;;;;;;23.63;4.47;;;;;;;;;;5050989;28;20049;-59
2022/01/03 01:36:42;;;;;;;19.00;4.03;;;;;;;;;;5051773;28;20048;-59
2022/01/03 01:39:10;;;;;;;20.20;3.95;;;;;;;;;;5051934;28;20048;-59
2022/01/03 01:41:43;;;;;;;23.38;4.03;;;;;;;;;;5051007;28;20052;-59
2022/01/03 01:44:10;;;;;;;22.98;4.68;;;;;;;;;;5051698;28;20503;-59
2022/01/03 01:46:42;;;;;;;22.35;4.95;;;;;;;;;;5051347;28;20045;-59
2022/01/03 01:49:08;;;;;;;21.95;4.93;;;;;;;;;;5050878;28;20044;-59
2022/01/03 01:51:35;;;;;;;19.38;4.47;;;;;;;;;;5051599;28;20041;-60
2022/01/03 01:54:04;;;;;;;20.80;4.78;;;;;;;;;;5051290;28;20044;-60
2022/01/03 01:56:37;;;;;;;27.20;5.20;;;;;;;;;;5050722;28;20067;-60
2022/01/03 01:59:19;;;;;;;22.60;4.10;;;;;;;;;;5051054;28;20479;-60
2022/01/03 02:01:49;;;;;;;18.23;4.38;;;;;;;;;;5050432;28;20053;-59
2022/01/03 02:04:33;;;;;;;25.05;4.20;;;;;;;;;;5051178;28;20316;-60
2022/01/03 02:07:14;;;;;;;19.08;4.55;;;;;;;;;;5050044;28;20095;-60
2022/01/03 02:09:42;;;;;;;21.92;4.85;;;;;;;;;;5050637;28;20094;-60
2022/01/03 02:12:13;;;;;;;20.42;4.50;;;;;;;;;;5051039;28;20476;-60
2022/01/03 02:14:41;;;;;;;21.55;4.50;;;;;;;;;;5051202;28;20049;-60
2022/01/03 02:17:07;;;;;;;21.10;4.57;;;;;;;;;;5050480;28;20515;-60
2022/01/03 02:19:36;;;;;;;19.73;4.47;;;;;;;;;;5051136;28;20048;-60
2022/01/03 02:22:03;;;;;;;25.55;4.93;;;;;;;;;;5050702;28;20045;-60
2022/01/03 02:24:30;;;;;;;24.00;5.18;;;;;;;;;;5050260;28;20049;-60
2022/01/03 02:26:56;;;;;;;24.48;4.72;;;;;;;;;;5050887;28;20056;-60
2022/01/03 02:29:22;;;;;;;20.02;4.63;;;;;;;;;;5049931;28;20049;-59
2022/01/03 02:31:48;;;;;;;25.92;5.20;;;;;;;;;;5050552;28;20053;-60
2022/01/03 02:34:15;;;;;;;19.45;4.53;;;;;;;;;;5050993;28;20057;-60
2022/01/03 02:36:44;;;;;;;23.05;4.95;;;;;;;;;;5050110;28;20829;-59
2022/01/03 02:39:10;;;;;;;21.08;4.88;;;;;;;;;;5051096;28;20118;-60
2022/01/03 02:41:36;;;;;;;18.13;4.50;;;;;;;;;;5050623;28;20565;-60
2022/01/03 02:44:03;;;;;;;23.65;4.18;;;;;;;;;;5049941;28;20052;-60
2022/01/03 02:46:29;;;;;;;28.55;5.13;;;;;;;;;;5051044;28;20446;-60
2022/01/03 02:48:55;;;;;;;23.08;4.28;;;;;;;;;;5050447;28;20098;-60
2022/01/03 02:51:21;;;;;;;21.83;4.38;;;;;;;;;;5050041;28;20099;-60
2022/01/03 02:53:49;;;;;;;24.80;4.88;;;;;;;;;;5050594;28;20099;-60
2022/01/03 02:56:15;;;;;;;25.98;5.03;;;;;;;;;;5050782;28;20449;-60
2022/01/03 02:58:41;;;;;;;24.00;5.45;;;;;;;;;;5049871;28;20049;-59
2022/01/03 03:01:07;;;;;;;24.30;4.97;;;;;;;;;;5050845;28;20049;-60
2022/01/03 03:03:34;;;;;;;26.88;5.38;;;;;;;;;;5050664;28;20119;-60
2022/01/03 03:06:00;;;;;;;24.08;5.10;;;;;;;;;;5029809;28;20050;-59
2022/01/03 03:08:26;;;;;;;21.80;4.65;;;;;;;;;;5030485;28;20552;-60
2022/01/03 03:10:54;;;;;;;23.42;5.20;;;;;;;;;;5030512;28;20046;-60
2022/01/03 03:13:20;;;;;;;22.15;4.50;;;;;;;;;;5029603;28;20057;-60
2022/01/03 03:15:48;;;;;;;20.17;4.65;;;;;;;;;;5030252;28;20559;-60
2022/01/03 03:18:14;;;;;;;30.45;5.25;;;;;;;;;;5030464;28;20053;-60
2022/01/03 03:20:43;;;;;;;21.60;4.20;;;;;;;;;;5029931;28;20053;-60
2022/01/03 03:23:09;;;;;;;25.10;4.45;;;;;;;;;;5030680;28;20049;-59
2022/01/03 03:25:36;;;;;;;20.65;4.93;;;;;;;;;;5030551;28;20444;-59
2022/01/03 03:28:04;;;;;;;29.58;5.63;;;;;;;;;;5030144;28;20049;-59
2022/01/03 03:30:32;;;;;;;28.30;5.47;;;;;;;;;;5030543;28;20092;-59
2022/01/03 03:33:01;;;;;;;23.88;4.78;;;;;;;;;;5029299;28;20131;-59
2022/01/03 03:35:27;;;;;;;23.88;5.18;;;;;;;;;;5030576;28;20053;-59
2022/01/03 03:37:54;;;;;;;18.10;5.03;;;;;;;;;;5030402;28;20096;-60
2022/01/03 03:40:20;;;;;;;25.08;4.78;;;;;;;;;;5029814;28;20046;-60
2022/01/03 03:42:47;;;;;;;23.20;4.80;;;;;;;;;;5032578;28;20049;-60
2022/01/03 03:45:14;;;;;;;22.65;4.40;;;;;;;;;;5033864;28;20136;-60
2022/01/03 03:47:41;;;;;;;23.83;4.63;;;;;;;;;;5033231;28;20542;-60
2022/01/03 03:50:08;;;;;;;21.00;5.00;;;;;;;;;;5033948;28;20041;-60
2022/01/03 03:52:34;;;;;;;19.60;4.20;;;;;;;;;;5034054;28;20232;-59
2022/01/03 03:55:00;;;;;;;29.15;5.07;;;;;;;;;;5032645;28;20099;-59
2022/01/03 03:57:26;;;;;;;20.55;5.13;;;;;;;;;;5033738;28;20091;-59
2022/01/03 03:59:53;;;;;;;26.50;5.90;;;;;;;;;;5033728;28;20049;-59
2022/01/03 04:02:20;;;;;;;27.27;5.40;;;;;;;;;;5032752;28;20068;-59
2022/01/03 04:04:46;;;;;;;27.45;5.63;;;;;;;;;;5042762;28;20535;-59
2022/01/03 04:07:13;;;;;;;27.40;5.25;;;;;;;;;;5053521;28;20106;-59
2022/01/03 04:09:39;;;;;;;25.42;4.95;;;;;;;;;;5052643;28;20106;-59
2022/01/03 04:12:06;;;;;;;24.67;5.10;;;;;;;;;;5053218;28;20045;-59
2022/01/03 04:14:32;;;;;;;25.77;5.68;;;;;;;;;;5053157;28;20053;-59
2022/01/03 04:16:58;;;;;;;30.23;5.22;;;;;;;;;;5052500;28;20041;-59
2022/01/03 04:19:26;;;;;;;22.02;4.68;;;;;;;;;;5053354;28;20072;-59
2022/01/03 04:21:52;;;;;;;25.30;5.10;;;;;;;;;;5052892;28;20049;-59
2022/01/03 04:24:18;;;;;;;26.73;5.47;;;;;;;;;;5053049;28;20111;-59
2022/01/03 04:26:45;;;;;;;26.35;5.97;;;;;;;;;;5052868;28;20049;-59
2022/01/03 04:29:12;;;;;;;26.30;6.13;;;;;;;;;;5052325;28;20128;-59
2022/01/03 04:31:38;;;;;;;23.52;5.63;;;;;;;;;;5052823;28;20049;-59
2022/01/03 04:34:05;;;;;;;30.13;5.45;;;;;;;;;;5052919;28;20048;-59
2022/01/03 04:36:32;;;;;;;27.55;5.38;;;;;;;;;;5052045;28;20438;-59
2022/01/03 04:38:58;;;;;;;24.77;5.63;;;;;;;;;;5052767;28;20082;-59
2022/01/03 04:41:25;;;;;;;25.20;4.47;;;;;;;;;;5052644;28;20385;-59
2022/01/03 04:43:51;;;;;;;24.50;5.50;;;;;;;;;;5051865;28;20099;-59
2022/01/03 04:46:17;;;;;;;25.40;5.25;;;;;;;;;;5052665;28;20079;-59
2022/01/03 04:48:44;;;;;;;21.92;4.82;;;;;;;;;;5052650;28;20052;-59
2022/01/03 04:51:12;;;;;;;29.15;5.38;;;;;;;;;;5052057;28;20160;-59
2022/01/03 04:53:40;;;;;;;22.63;5.10;;;;;;;;;;5052248;28;20041;-59
2022/01/03 04:56:07;;;;;;;26.02;4.95;;;;;;;;;;5052265;28;20049;-59
2022/01/03 04:58:33;;;;;;;22.70;4.03;;;;;;;;;;5051718;28;20107;-59
2022/01/03 05:01:00;;;;;;;23.80;4.47;;;;;;;;;;5052147;28;20122;-59
2022/01/03 05:03:26;;;;;;;23.60;5.07;;;;;;;;;;5052523;28;20090;-59
2022/01/03 05:05:52;;;;;;;23.40;4.82;;;;;;;;;;5051153;28;20565;-59
2022/01/03 05:08:18;;;;;;;23.85;4.57;;;;;;;;;;5052381;28;20048;-59
2022/01/03 05:10:46;;;;;;;25.17;5.25;;;;;;;;;;5052128;28;20091;-60
2022/01/03 05:13:12;;;;;;;24.70;5.43;;;;;;;;;;5051641;28;20048;-59
2022/01/03 05:15:38;;;;;;;25.25;5.05;;;;;;;;;;5052295;28;20049;-59
2022/01/03 05:18:04;;;;;;;24.00;4.18;;;;;;;;;;5051702;28;20060;-59
2022/01/03 05:20:31;;;;;;;21.65;4.53;;;;;;;;;;5051374;28;20107;-59
2022/01/03 05:22:57;;;;;;;22.65;4.57;;;;;;;;;;5051670;28;20438;-60
2022/01/03 05:25:23;;;;;;;23.05;4.72;;;;;;;;;;5051180;28;20052;-59
2022/01/03 05:27:51;;;;;;;23.30;4.68;;;;;;;;;;5051592;28;20103;-60
2022/01/03 05:30:17;;;;;;;22.15;4.35;;;;;;;;;;5051887;28;20501;-60
2022/01/03 05:32:43;;;;;;;17.70;3.83;;;;;;;;;;5050789;28;20091;-59
2022/01/03 05:35:09;;;;;;;19.77;4.40;;;;;;;;;;5051746;28;20557;-59
2022/01/03 05:37:36;;;;;;;21.98;5.13;;;;;;;;;;5051675;28;20051;-59
2022/01/03 05:40:02;;;;;;;21.02;4.97;;;;;;;;;;5050841;28;20461;-59
2022/01/03 05:42:28;;;;;;;22.42;4.65;;;;;;;;;;5051742;28;20094;-59
2022/01/03 05:44:57;;;;;;;21.13;4.63;;;;;;;;;;5051601;28;20076;-59
2022/01/03 05:47:23;;;;;;;26.60;4.90;;;;;;;;;;5050781;28;20050;-60
2022/01/03 05:49:49;;;;;;;21.88;4.85;;;;;;;;;;5051117;28;20118;-60
2022/01/03 05:52:16;;;;;;;19.83;4.68;;;;;;;;;;5051334;28;20498;-59
2022/01/03 05:54:42;;;;;;;25.83;4.65;;;;;;;;;;5050540;28;20099;-59
2022/01/03 05:57:08;;;;;;;20.67;4.30;;;;;;;;;;5051489;28;20053;-58
2022/01/03 05:59:34;;;;;;;19.75;4.03;;;;;;;;;;5051394;28;20095;-59
2022/01/03 06:02:03;;;;;;;15.35;3.75;;;;;;;;;;5050467;28;20076;-60
2022/01/03 06:04:41;;;;;;;19.83;4.32;;;;;;;;;;5050439;28;20053;-59
2022/01/03 06:07:08;;;;;;;21.15;4.60;;;;;;;;;;5051220;28;20048;-59
2022/01/03 06:09:35;;;;;;;19.65;4.53;;;;;;;;;;5050787;28;20239;-59
2022/01/03 06:12:01;;;;;;;21.95;4.72;;;;;;;;;;5051082;28;20099;-59
2022/01/03 06:14:28;;;;;;;23.27;4.63;;;;;;;;;;5050511;28;20049;-59
2022/01/03 06:16:54;;;;;;;19.83;4.07;;;;;;;;;;5050959;28;20045;-59
2022/01/03 06:19:22;;;;;;;20.92;4.25;;;;;;;;;;5050942;28;20049;-59
2022/01/03 06:21:49;;;;;;;18.45;4.18;;;;;;;;;;5050151;28;20356;-59
2022/01/03 06:24:16;;;;;;;20.48;4.65;;;;;;;;;;5051045;28;20457;-59
2022/01/03 06:26:43;;;;;;;19.35;4.07;;;;;;;;;;5050823;28;20091;-59
2022/01/03 06:29:13;;;;;;;22.55;4.35;;;;;;;;;;5050215;28;20053;-59
2022/01/03 06:31:39;;;;;;;21.17;4.38;;;;;;;;;;5051030;28;20115;-59
2022/01/03 06:34:06;;;;;;;21.55;4.30;;;;;;;;;;5050555;28;20045;-59
2022/01/03 06:36:34;;;;;;;18.77;3.70;;;;;;;;;;5050096;28;20060;-59
2022/01/03 06:39:01;;;;;;;20.10;4.43;;;;;;;;;;5050846;28;20049;-59
2022/01/03 06:41:27;;;;;;;20.10;4.85;;;;;;;;;;5051078;28;20041;-59
2022/01/03 06:43:55;;;;;;;15.55;3.45;;;;;;;;;;5049714;28;20045;-59
2022/01/03 06:46:22;;;;;;;20.17;4.20;;;;;;;;;;5050953;28;20041;-59
2022/01/03 06:48:49;;;;;;;18.50;4.63;;;;;;;;;;5050294;28;20041;-59
2022/01/03 06:51:15;;;;;;;23.10;4.10;;;;;;;;;;5050344;28;20144;-59
2022/01/03 06:53:43;;;;;;;21.65;4.40;;;;;;;;;;5050876;28;20049;-59
2022/01/03 06:56:10;;;;;;;20.30;4.28;;;;;;;;;;5050763;28;20197;-59
2022/01/03 06:58:37;;;;;;;16.30;3.95;;;;;;;;;;5050024;28;20057;-60
2022/01/03 07:01:04;;;;;;;19.70;4.05;;;;;;;;;;5050326;28;20053;-59
2022/01/03 07:03:30;;;;;;;15.95;3.38;;;;;;;;;;5050570;28;20037;-59
2022/01/03 07:05:56;;;;;;;17.52;3.95;;;;;;;;;;5049451;28;20103;-59
2022/01/03 07:08:22;;;;;;;19.20;4.28;;;;;;;;;;5050836;28;20519;-59
2022/01/03 07:10:50;;;;;;;19.92;3.95;;;;;;;;;;5049638;28;20110;-59
2022/01/03 07:13:17;;;;;;;17.05;3.72;;;;;;;;;;5050584;28;20202;-59
2022/01/03 07:21:11;;;;;;;21.88;4.15;;;;;;;;;;5054336;28;20060;-59
2022/01/03 07:23:39;;;;;;;20.10;4.60;;;;;;;;;;5054423;28;20064;-59
2022/01/03 07:26:06;;;;;;;18.17;4.53;;;;;;;;;;5053040;28;20103;-59
2022/01/03 07:28:33;;;;;;;20.08;4.05;;;;;;;;;;5054198;28;20497;-59
2022/01/03 07:30:59;;;;;;;18.40;4.05;;;;;;;;;;5053811;28;20037;-59
2022/01/03 07:33:25;;;;;;;22.58;4.53;;;;;;;;;;5053523;28;20053;-59
2022/01/03 07:35:51;;;;;;;18.65;4.00;;;;;;;;;;5053582;28;20041;-59
2022/01/03 07:38:18;;;;;;;16.20;3.97;;;;;;;;;;5054148;28;20049;-59
2022/01/03 07:40:44;;;;;;;19.52;4.70;;;;;;;;;;5052817;28;20494;-59
2022/01/03 07:43:12;;;;;;;18.05;4.03;;;;;;;;;;5053860;28;20053;-59
2022/01/03 07:45:38;;;;;;;20.20;3.90;;;;;;;;;;5054048;28;20049;-59
2022/01/03 07:48:04;;;;;;;21.10;4.53;;;;;;;;;;5053045;28;20040;-59
2022/01/03 07:50:30;;;;;;;18.73;4.07;;;;;;;;;;5053909;28;20114;-59
2022/01/03 07:52:58;;;;;;;18.02;3.78;;;;;;;;;;5052965;28;20475;-60
2022/01/03 07:55:24;;;;;;;23.73;4.30;;;;;;;;;;5053742;28;20052;-59
2022/01/03 07:57:50;;;;;;;17.02;3.83;;;;;;;;;;5053801;28;20053;-59
2022/01/03 08:00:18;;;;;;;17.10;3.85;;;;;;;;;;5052928;28;20216;-58
2022/01/03 08:02:44;;;;;;;21.90;3.88;;;;;;;;;;5053400;28;20060;-59
2022/01/03 08:05:13;;;;;;;20.88;4.65;;;;;;;;;;5053681;28;20053;-59
2022/01/03 08:07:39;;;;;;;15.75;3.75;;;;;;;;;;5052855;28;20051;-59
2022/01/03 08:10:07;;;;;;;18.65;4.30;;;;;;;;;;5053299;28;20451;-59
2022/01/03 08:12:34;;;;;;;24.80;4.47;;;;;;;;;;5053497;28;20076;-58
2022/01/03 08:15:00;;;;;;;21.50;4.88;;;;;;;;;;5051921;28;20087;-59
2022/01/03 08:17:28;;;;;;;20.20;4.72;;;;;;;;;;5049957;28;20500;-59
2022/01/03 08:19:54;;;;;;;19.05;4.35;;;;;;;;;;5053014;28;20045;-59
2022/01/03 08:22:20;;;;;;;21.38;3.80;;;;;;;;;;5051877;28;20045;-59
2022/01/03 08:24:46;;;;;;;19.40;4.18;;;;;;;;;;5051902;28;20053;-59
2022/01/03 08:27:12;;;;;;;20.95;4.85;;;;;;;;;;5052221;28;20047;-59
2022/01/03 08:29:39;;;;;;;22.63;5.00;;;;;;;;;;5052369;28;20095;-59
2022/01/03 08:32:06;;;;;;;21.55;4.60;;;;;;;;;;5052078;28;20045;-60
2022/01/03 08:34:33;;;;;;;19.60;3.70;;;;;;;;;;5053171;28;20122;-59
2022/01/03 08:37:00;;;;;;;21.75;4.13;;;;;;;;;;5052093;28;20048;-59
2022/01/03 08:39:27;;;;;;;21.42;4.75;;;;;;;;;;5052866;28;20056;-59
2022/01/03 08:41:53;;;;;;;20.02;4.28;;;;;;;;;;5052650;28;20114;-59
2022/01/03 08:44:19;;;;;;;21.33;4.10;;;;;;;;;;5052294;28;20048;-59
2022/01/03 08:46:46;;;;;;;15.13;3.90;;;;;;;;;;5051778;28;20095;-59
2022/01/03 08:49:12;;;;;;;20.80;4.90;;;;;;;;;;5052020;28;20044;-60
2022/01/03 08:51:40;;;;;;;16.17;3.78;;;;;;;;;;5052644;28;20102;-59
2022/01/03 08:54:06;;;;;;;20.38;4.72;;;;;;;;;;5052307;28;20041;-59
2022/01/03 08:56:32;;;;;;;15.73;3.85;;;;;;;;;;5051839;28;20045;-58
2022/01/03 08:58:58;;;;;;;19.63;4.07;;;;;;;;;;5052197;28;20050;-59
2022/01/03 09:01:25;;;;;;;16.88;4.50;;;;;;;;;;5051685;28;20045;-58
2022/01/03 09:03:51;;;;;;;20.58;4.78;;;;;;;;;;5051139;28;20053;-58
2022/01/03 09:06:17;;;;;;;22.63;3.97;;;;;;;;;;5052399;28;20036;-60
2022/01/03 09:08:45;;;;;;;20.27;3.75;;;;;;;;;;5052059;28;20399;-60
2022/01/03 09:11:12;;;;;;;17.67;3.75;;;;;;;;;;5051733;28;20102;-60
2022/01/03 09:13:38;;;;;;;16.90;4.35;;;;;;;;;;5052218;28;20460;-60
2022/01/03 09:16:07;;;;;;;22.33;4.40;;;;;;;;;;5051673;28;20049;-60
2022/01/03 09:18:33;;;;;;;18.60;3.75;;;;;;;;;;5051699;28;20132;-60
2022/01/03 09:21:00;;;;;;;17.48;4.40;;;;;;;;;;5051748;28;20083;-60
2022/01/03 09:23:29;;;;;;;16.40;4.22;;;;;;;;;;5052133;28;20045;-60
2022/01/03 09:28:51;;;;;;;18.88;4.15;;;;;;;;;;5051648;28;20056;-60
2022/01/03 09:31:19;;;;;;;22.27;4.88;;;;;;;;;;5051962;28;20091;-60
2022/01/03 09:33:45;;;;;;;21.98;4.60;;;;;;;;;;5051595;28;20095;-59
2022/01/03 09:36:11;;;;;;;18.77;4.18;;;;;;;;;;5052256;28;20049;-59
2022/01/03 09:38:38;;;;;;;20.30;4.90;;;;;;;;;;5051177;28;20041;-59
2022/01/03 09:41:07;;;;;;;25.00;4.82;;;;;;;;;;5051741;28;20094;-60
2022/01/03 09:43:35;;;;;;;23.13;5.22;;;;;;;;;;5051765;28;20045;-60
2022/01/03 09:46:02;;;;;;;17.25;4.13;;;;;;;;;;5050778;28;20049;-59
2022/01/03 09:48:29;;;;;;;22.70;5.38;;;;;;;;;;5051819;28;20099;-59
2022/01/03 09:50:57;;;;;;;20.65;4.20;;;;;;;;;;5051415;28;20045;-59
2022/01/03 09:53:24;;;;;;;22.13;4.70;;;;;;;;;;5051144;28;20054;-59
2022/01/03 09:55:50;;;;;;;19.38;4.65;;;;;;;;;;5051360;28;20045;-59
2022/01/03 09:58:18;;;;;;;18.85;3.88;;;;;;;;;;5051438;28;20503;-59
2022/01/03 10:00:44;;;;;;;19.85;3.88;;;;;;;;;;5050261;28;20049;-59
2022/01/03 10:03:10;;;;;;;21.30;4.57;;;;;;;;;;5051795;28;20067;-59
2022/01/03 10:05:37;;;;;;;21.35;3.78;;;;;;;;;;5051231;28;20098;-59
2022/01/03 10:08:04;;;;;;;20.55;4.50;;;;;;;;;;5050527;28;20049;-59
2022/01/03 10:10:31;;;;;;;18.48;4.45;;;;;;;;;;5051502;28;20179;-59
2022/01/03 10:12:57;;;;;;;18.40;4.22;;;;;;;;;;5051037;28;20048;-59
2022/01/03 10:15:25;;;;;;;21.60;4.30;;;;;;;;;;5050679;28;20041;-59
2022/01/03 10:17:51;;;;;;;18.02;4.10;;;;;;;;;;5051203;28;20053;-59
2022/01/03 10:20:17;;;;;;;20.30;4.45;;;;;;;;;;5051260;28;20056;-60
2022/01/03 10:22:44;;;;;;;21.95;4.30;;;;;;;;;;5050332;28;20045;-59
2022/01/03 10:25:12;;;;;;;21.15;4.28;;;;;;;;;;5051270;28;20045;-59
2022/01/03 10:27:46;;;;;;;19.30;4.20;;;;;;;;;;5050534;28;20063;-59
2022/01/03 10:30:12;;;;;;;22.67;4.82;;;;;;;;;;5051282;28;20037;-59
2022/01/03 10:32:41;;;;;;;21.15;4.60;;;;;;;;;;5051274;28;20048;-59
2022/01/03 10:35:13;;;;;;;21.33;4.30;;;;;;;;;;5050380;28;20049;-59
2022/01/03 10:37:40;;;;;;;21.88;4.65;;;;;;;;;;5051207;28;20051;-59
2022/01/03 10:40:16;;;;;;;17.58;4.45;;;;;;;;;;5050688;28;20048;-59
2022/01/03 10:42:42;;;;;;;25.52;4.93;;;;;;;;;;5050168;28;20036;-59
2022/01/03 10:45:08;;;;;;;19.10;4.13;;;;;;;;;;5050789;28;20484;-58
2022/01/03 10:47:35;;;;;;;21.02;4.40;;;;;;;;;;5051179;28;20053;-59
2022/01/03 10:50:14;;;;;;;22.63;4.70;;;;;;;;;;5050005;28;20052;-59
2022/01/03 10:52:41;;;;;;;22.40;5.22;;;;;;;;;;5055199;28;20412;-59
2022/01/03 10:55:10;;;;;;;19.65;4.40;;;;;;;;;;5055254;28;20045;-59
2022/01/03 10:57:52;;;;;;;24.80;5.00;;;;;;;;;;5054372;28;20482;-59
2022/01/03 11:00:19;;;;;;;21.77;4.50;;;;;;;;;;5054866;28;20075;-59
2022/01/03 11:03:09;;;;;;;19.00;4.28;;;;;;;;;;5054665;28;20486;-59
2022/01/03 11:05:40;;;;;;;16.25;4.47;;;;;;;;;;5054755;28;20119;-59
2022/01/03 11:10:51;;;;;;;18.88;4.60;;;;;;;;;;5053662;28;20079;-60
2022/01/03 11:13:18;;;;;;;22.42;4.65;;;;;;;;;;5054723;28;20059;-59
2022/01/03 11:15:49;;;;;;;22.17;4.85;;;;;;;;;;5054474;28;20458;-60
2022/01/03 11:18:17;;;;;;;17.40;4.20;;;;;;;;;;5054106;28;20049;-60
2022/01/03 11:20:45;;;;;;;22.58;4.45;;;;;;;;;;5054306;28;20068;-60
2022/01/03 11:23:18;;;;;;;21.65;4.80;;;;;;;;;;5054780;28;20052;-59
2022/01/03 11:25:44;;;;;;;21.02;4.93;;;;;;;;;;5053965;28;20136;-59
2022/01/03 11:28:10;;;;;;;23.98;4.95;;;;;;;;;;5054368;28;20045;-59
2022/01/03 11:30:37;;;;;;;22.98;4.93;;;;;;;;;;5054624;28;20049;-58
2022/01/03 11:33:04;;;;;;;24.58;5.60;;;;;;;;;;5033532;28;20076;-58
2022/01/03 11:35:30;;;;;;;20.58;4.90;;;;;;;;;;5034622;28;20080;-58
2022/01/03 11:37:59;;;;;;;23.50;5.38;;;;;;;;;;5033868;28;20053;-58
2022/01/03 11:40:26;;;;;;;24.33;5.18;;;;;;;;;;5050319;28;20041;-59
2022/01/03 11:42:53;;;;;;;17.48;4.47;;;;;;;;;;5050928;28;20099;-58
2022/01/03 11:45:19;;;;;;;16.38;4.03;;;;;;;;;;5040315;28;20041;-59
2022/01/03 11:47:45;;;;;;;19.83;4.50;;;;;;;;;;5052033;28;20484;-59
2022/01/03 11:50:12;;;;;;;18.88;4.68;;;;;;;;;;5053506;28;20041;-59
2022/01/03 11:52:40;;;;;;;19.92;5.47;;;;;;;;;;5052673;28;20122;-59
2022/01/03 11:55:09;;;;;;;27.23;5.38;;;;;;;;;;5053063;28;20239;-58
2022/01/03 12:03:50;;;;;;;;;;;;;;;;;;5042293;28;20052;-59
2022/01/03 12:06:24;;;;;;;20.63;4.30;;;;;;;;;;5053097;28;19962;-59
2022/01/03 12:08:54;;;;;;;22.42;4.93;;;;;;;;;;5053311;28;20446;-60
2022/01/03 12:11:22;;;;;;;18.08;4.32;;;;;;;;;;5053893;28;20045;-61
2022/01/03 12:13:52;;;;;;;19.70;4.15;;;;;;;;;;5052430;28;20459;-61
2022/01/03 12:16:19;;;;;;;22.58;4.82;;;;;;;;;;5053844;28;20056;-61
2022/01/03 12:18:58;;;;;;;17.95;4.60;;;;;;;;;;5053135;28;20041;-61
2022/01/03 12:21:43;;;;;;;24.35;4.88;;;;;;;;;;5052912;28;20041;-61
2022/01/03 12:24:38;;;;;;;21.90;4.45;;;;;;;;;;5053584;28;20045;-61
2022/01/03 12:27:22;;;;;;;22.23;4.90;;;;;;;;;;5052961;28;20041;-61
2022/01/03 12:30:08;;;;;;;15.63;4.80;;;;;;;;;;5053271;28;20053;-60
2022/01/03 12:32:35;;;;;;;18.63;4.18;;;;;;;;;;5053295;28;20048;-59
2022/01/03 12:35:17;;;;;;;19.63;4.82;;;;;;;;;;5050780;28;20049;-59
2022/01/03 12:37:44;;;;;;;19.17;4.70;;;;;;;;;;5053025;28;20049;-59
2022/01/03 12:40:11;;;;;;;17.00;4.65;;;;;;;;;;5053423;28;20049;-59
2022/01/03 12:42:55;;;;;;;19.45;5.13;;;;;;;;;;5052059;28;20121;-60
2022/01/03 12:45:40;;;;;;;18.45;4.50;;;;;;;;;;5053033;28;20049;-59
2022/01/03 12:48:24;;;;;;;20.65;4.38;;;;;;;;;;5053003;28;20094;-60
2022/01/03 12:51:12;;;;;;;20.48;4.43;;;;;;;;;;5052622;28;20553;-59
2022/01/03 12:53:40;;;;;;;19.67;4.43;;;;;;;;;;5053112;28;20052;-60
2022/01/03 12:56:08;;;;;;;21.75;4.03;;;;;;;;;;5051943;28;20041;-59
2022/01/03 12:58:43;;;;;;;21.42;4.40;;;;;;;;;;5052655;28;20144;-59
2022/01/03 13:01:22;;;;;;;17.05;3.92;;;;;;;;;;5032966;28;20053;-59
2022/01/03 13:03:50;;;;;;;22.52;5.40;;;;;;;;;;5031529;28;20049;-59
2022/01/03 13:06:17;;;;;;;15.20;3.90;;;;;;;;;;5033071;28;20234;-59
2022/01/03 13:08:44;;;;;;;18.83;4.10;;;;;;;;;;5032586;28;20041;-59
2022/01/03 13:11:12;;;;;;;14.95;3.42;;;;;;;;;;5032063;28;20167;-59
2022/01/03 13:13:41;;;;;;;22.70;4.32;;;;;;;;;;5032287;28;20037;-59
2022/01/03 13:16:18;;;;;;;16.65;4.38;;;;;;;;;;5032549;28;20543;-59
2022/01/03 13:18:45;;;;;;;18.08;4.38;;;;;;;;;;5031300;28;20053;-59
2022/01/03 13:21:13;;;;;;;15.75;3.85;;;;;;;;;;5032622;28;20053;-59
2022/01/03 13:23:41;;;;;;;10.88;3.30;;;;;;;;;;5031524;28;20053;-59
2022/01/03 13:26:08;;;;;;;13.43;3.58;;;;;;;;;;5032360;28;20041;-59
2022/01/03 13:28:44;;;;;;;14.70;3.78;;;;;;;;;;5032252;28;20546;-59
2022/01/03 13:31:10;;;;;;;17.25;4.13;;;;;;;;;;5035767;28;20045;-59
2022/01/03 13:33:38;;;;;;;15.63;3.60;;;;;;;;;;5052066;28;20041;-59
2022/01/03 13:36:05;;;;;;;15.32;3.25;;;;;;;;;;5051801;28;20064;-59
2022/01/03 13:38:32;;;;;;;13.38;3.30;;;;;;;;;;5051395;28;20091;-59
2022/01/03 13:41:09;;;;;;;13.70;3.60;;;;;;;;;;5051470;28;20041;-59
2022/01/03 13:43:40;;;;;;;14.57;3.78;;;;;;;;;;5052059;28;20080;-59
2022/01/03 13:51:35;;;;;;;17.70;3.80;;;;;;;;;;5051255;28;20059;-59
2022/01/03 13:54:01;;;;;;;14.23;3.67;;;;;;;;;;5051362;28;20049;-60
2022/01/03 13:56:39;;;;;;;13.95;3.30;;;;;;;;;;5051371;28;20550;-59
2022/01/03 13:59:06;;;;;;;11.18;3.25;;;;;;;;;;5050523;28;20095;-59
2022/01/03 14:01:32;;;;;;;14.32;3.85;;;;;;;;;;5051428;28;20496;-60
2022/01/03 14:04:00;;;;;;;16.42;3.75;;;;;;;;;;5051011;28;20057;-61
2022/01/03 14:06:26;;;;;;;12.25;3.08;;;;;;;;;;5050624;28;20281;-61
2022/01/03 14:08:53;;;;;;;10.93;2.90;;;;;;;;;;5051479;28;20045;-60
2022/01/03 14:11:20;;;;;;;13.60;3.30;;;;;;;;;;5051230;28;20519;-60
2022/01/03 14:13:46;;;;;;;14.68;3.63;;;;;;;;;;5050563;28;20132;-60
2022/01/03 14:16:13;;;;;;;12.60;3.53;;;;;;;;;;5051417;28;20113;-60
2022/01/03 14:18:41;;;;;;;10.88;3.17;;;;;;;;;;5051756;28;20053;-60
2022/01/03 14:21:10;;;;;;;11.95;3.55;;;;;;;;;;5050168;28;20053;-60
2022/01/03 14:23:37;;;;;;;12.75;3.58;;;;;;;;;;5051313;28;20114;-60
2022/01/03 14:26:20;;;;;;;16.50;3.20;;;;;;;;;;5050349;28;20055;-60
2022/01/03 14:28:47;;;;;;;12.25;3.25;;;;;;;;;;5050237;28;20451;-60
2022/01/03 14:31:13;;;;;;;13.63;3.58;;;;;;;;;;5050971;28;20499;-60
2022/01/03 14:33:40;;;;;;;11.95;3.40;;;;;;;;;;5051201;28;20083;-60
2022/01/03 14:36:15;;;;;;;11.25;3.28;;;;;;;;;;5050415;28;20048;-60
2022/01/03 14:38:43;;;;;;;14.48;3.80;;;;;;;;;;5051205;28;20048;-60
2022/01/03 14:41:19;;;;;;;10.32;2.85;;;;;;;;;;5050290;28;20106;-60
2022/01/03 14:43:54;;;;;;;17.20;3.58;;;;;;;;;;5050765;28;20488;-60
2022/01/03 14:46:28;;;;;;;13.73;3.20;;;;;;;;;;5051154;28;20084;-59
2022/01/03 14:48:54;;;;;;;8.82;3.00;;;;;;;;;;5050095;28;20041;-60
2022/01/03 14:51:22;;;;;;;10.27;2.78;;;;;;;;;;5051051;28;20052;-59
2022/01/03 14:53:48;;;;;;;11.60;3.42;;;;;;;;;;5050864;28;20045;-60
2022/01/03 14:56:25;;;;;;;10.80;3.55;;;;;;;;;;5050162;28;20049;-60
2022/01/03 14:59:07;;;;;;;11.05;3.58;;;;;;;;;;5050817;28;20119;-60
2022/01/03 15:01:33;;;;;;;9.68;3.58;;;;;;;;;;5051071;28;20045;-59